»·PEaware :: SCX154 KRNO-KPDX

SCX154 :: KRNO-KPDX

FLIGHT INFORMATION

Flight Status: Arrived
Operator:
Sun Country Airlines
More flights by this operator :: More flights under this callsign
Pilot: Ben F. (13029)
Aircraft: BOEING 737-800
(B738)
More flights by this aircraft type
Origin: KRNO Reno/Tahoe Intl
United States
Destination: KPDX Portland Intl
United States
More flights between these airports :: More routes between these airports
Route: +ZEFFR6 BLKJK WNDEL SOERN TMBRS2
File this flight plan on PilotEdge
Remarks: RMK / SIMBRIEF
Altitude:
(Current/Filed)
34,000ft
Speed:
(Current/Filed)
449kts
Departed: 04-Apr-20 12:24 PM
Arrived: 04-Apr-20 01:41 PM
Distance/Time
Traveled:
386nm/1:16
Distance/Time
To Go:
Arrived

Flight Plot

Page will automatically refresh every two minutes.

Flight plan parsing failed; only flown route is shown


Map Options




Map Legend


Flown Route
Filed Route
Departure Airport
Arrival Airport
Navaid (VOR, NDB)
Fix

Horizontal Profiles

Position Reports

Time Latitude Longitude Heading Altitude Ground
Speed
04-Apr-20 11:49 39.504442 -119.772792 355 4420ft 0kts
04-Apr-20 11:50 39.504442 -119.772792 355 4420ft 0kts
04-Apr-20 11:51 39.504442 -119.772792 355 4420ft 0kts
04-Apr-20 11:52 39.504442 -119.772792 355 4420ft 0kts
04-Apr-20 11:53 39.504442 -119.772792 355 4420ft 0kts
04-Apr-20 11:54 39.504442 -119.772792 355 4420ft 0kts
04-Apr-20 11:55 39.504442 -119.772792 355 4420ft 0kts
04-Apr-20 11:56 39.504442 -119.772792 355 4420ft 0kts
04-Apr-20 11:57 39.504442 -119.772792 355 4420ft 0kts
04-Apr-20 11:58 39.504442 -119.772792 355 4420ft 0kts
04-Apr-20 11:59 39.504442 -119.772792 355 4420ft 0kts
04-Apr-20 12:00 39.504442 -119.772792 355 4420ft 0kts
04-Apr-20 12:02 39.504442 -119.772792 355 4420ft 0kts
04-Apr-20 12:03 39.504442 -119.772792 355 4420ft 0kts
04-Apr-20 12:04 39.504442 -119.772792 355 4420ft 0kts
04-Apr-20 12:05 39.504442 -119.772792 355 4420ft 0kts
04-Apr-20 12:06 39.504442 -119.772792 355 4420ft 0kts
04-Apr-20 12:07 39.504442 -119.772792 355 4420ft 0kts
04-Apr-20 12:08 39.504442 -119.772792 355 4420ft 0kts
04-Apr-20 12:09 39.504442 -119.772792 355 4420ft 0kts
04-Apr-20 12:10 39.504442 -119.772792 355 4420ft 0kts
04-Apr-20 12:11 39.504442 -119.772792 355 4420ft 0kts
04-Apr-20 12:12 39.504442 -119.772792 355 4420ft 0kts
04-Apr-20 12:13 39.504442 -119.772792 355 4420ft 0kts
04-Apr-20 12:14 39.504442 -119.772792 355 4420ft 0kts
04-Apr-20 12:15 39.504441 -119.772792 355 4420ft 0kts
04-Apr-20 12:16 39.503940 -119.772791 355 4420ft 2kts
04-Apr-20 12:17 39.503728 -119.773029 89 4420ft 0kts
04-Apr-20 12:17 39.503728 -119.773029 89 4420ft 0kts
04-Apr-20 12:19 39.503728 -119.773029 89 4420ft 0kts
04-Apr-20 12:20 39.503785 -119.771892 65 4420ft 9kts
04-Apr-20 12:21 39.508431 -119.771490 0 4420ft 25kts
04-Apr-20 12:21 39.513757 -119.770497 89 4420ft 0kts
04-Apr-20 12:23 39.513759 -119.770308 88 4420ft 3kts
04-Apr-20 12:24 39.500882 -119.769257 179 4420ft 156kts
04-Apr-20 12:24 39.457705 -119.768630 181 6300ft 186kts
04-Apr-20 12:25 39.402376 -119.769768 179 7927ft 229kts
04-Apr-20 12:26 39.330991 -119.757944 151 9433ft 293kts
04-Apr-20 12:27 39.285615 -119.671466 98 12346ft 323kts
04-Apr-20 12:28 39.326769 -119.558846 56 14674ft 371kts
04-Apr-20 12:29 39.397495 -119.456148 43 17179ft 395kts
04-Apr-20 12:30 39.491445 -119.381168 0 18859ft 408kts
04-Apr-20 12:31 39.588312 -119.428243 311 19459ft 372kts
04-Apr-20 12:32 39.668649 -119.516122 311 21787ft 383kts
04-Apr-20 12:33 39.751413 -119.606236 310 23941ft 394kts
04-Apr-20 12:34 39.835551 -119.698134 310 26029ft 401kts
04-Apr-20 12:35 39.921560 -119.792408 309 27910ft 408kts
04-Apr-20 12:36 40.009162 -119.888755 309 29626ft 415kts
04-Apr-20 12:37 40.097726 -119.986474 308 31236ft 420kts
04-Apr-20 12:38 40.186146 -120.084311 307 33226ft 409kts
04-Apr-20 12:39 40.273181 -120.181230 308 33814ft 423kts
04-Apr-20 12:40 40.362054 -120.280211 307 33812ft 418kts
04-Apr-20 12:41 40.467314 -120.358249 325 33811ft 447kts
04-Apr-20 12:42 40.581989 -120.422498 324 33810ft 448kts
04-Apr-20 12:43 40.695873 -120.487065 324 33811ft 447kts
04-Apr-20 12:44 40.810170 -120.552094 325 33812ft 447kts
04-Apr-20 12:45 40.924336 -120.617281 324 33811ft 446kts
04-Apr-20 12:46 41.038826 -120.682935 326 33824ft 447kts
04-Apr-20 12:47 41.150460 -120.747176 329 33817ft 446kts
04-Apr-20 12:48 41.264353 -120.812962 329 33817ft 449kts
04-Apr-20 12:49 41.377500 -120.878556 329 33789ft 448kts
04-Apr-20 12:50 41.491751 -120.945051 329 33789ft 448kts
04-Apr-20 12:51 41.605723 -121.011636 329 33790ft 449kts
04-Apr-20 12:52 41.720671 -121.079055 329 33785ft 452kts
04-Apr-20 12:53 41.835756 -121.146826 330 33778ft 453kts
04-Apr-20 12:54 41.949360 -121.213976 330 33773ft 455kts
04-Apr-20 12:55 42.064742 -121.282426 330 33772ft 455kts
04-Apr-20 12:56 42.180401 -121.351360 330 33765ft 454kts
04-Apr-20 12:57 42.295952 -121.420464 330 33767ft 455kts
04-Apr-20 12:58 42.410746 -121.489409 330 33766ft 455kts
04-Apr-20 12:59 42.526224 -121.559043 330 33764ft 454kts
04-Apr-20 13:00 42.641361 -121.628758 330 33767ft 453kts
04-Apr-20 13:01 42.756850 -121.698965 329 33775ft 455kts
04-Apr-20 13:02 42.871626 -121.769021 329 33778ft 454kts
04-Apr-20 13:03 42.987420 -121.840009 331 33777ft 459kts
04-Apr-20 13:04 43.098215 -121.923919 327 33774ft 457kts
04-Apr-20 13:05 43.208912 -122.009804 327 33777ft 456kts
04-Apr-20 13:06 43.317785 -122.094618 327 33784ft 455kts
04-Apr-20 13:07 43.426420 -122.179585 327 33783ft 456kts
04-Apr-20 13:08 43.533590 -122.263791 326 33768ft 428kts
04-Apr-20 13:09 43.638955 -122.346784 327 33792ft 439kts
04-Apr-20 13:10 43.743690 -122.429411 327 32451ft 431kts
04-Apr-20 13:11 43.846474 -122.510831 327 30305ft 423kts
04-Apr-20 13:12 43.947465 -122.591128 327 28164ft 416kts
04-Apr-20 13:13 44.046771 -122.670422 326 26041ft 407kts
04-Apr-20 13:14 44.144304 -122.739186 343 23982ft 403kts
04-Apr-20 13:15 44.250886 -122.743342 1 23465ft 361kts
04-Apr-20 13:16 44.355765 -122.732879 1 20968ft 382kts
04-Apr-20 13:17 44.459067 -122.722662 1 19219ft 371kts
04-Apr-20 13:18 44.560738 -122.712576 1 17470ft 361kts
04-Apr-20 13:19 44.659286 -122.702696 1 15771ft 351kts
04-Apr-20 13:20 44.755579 -122.693017 1 14098ft 342kts
04-Apr-20 13:21 44.848814 -122.683616 1 12692ft 324kts
04-Apr-20 13:22 44.935111 -122.674931 1 11529ft 304kts
04-Apr-20 13:23 45.017847 -122.666555 1 10251ft 293kts
04-Apr-20 13:24 45.097963 -122.658421 1 8333ft 284kts
04-Apr-20 13:25 45.174678 -122.650610 2 7041ft 273kts
04-Apr-20 13:26 45.251276 -122.647194 347 7026ft 273kts
04-Apr-20 13:27 45.322660 -122.683084 336 7024ft 272kts
04-Apr-20 13:28 45.392259 -122.721258 337 6032ft 266kts
04-Apr-20 13:29 45.459862 -122.758379 337 5841ft 237kts
04-Apr-20 13:30 45.518078 -122.790447 337 5032ft 221kts
04-Apr-20 13:31 45.574352 -122.826839 318 5019ft 220kts
04-Apr-20 13:32 45.610458 -122.896374 303 4351ft 217kts
04-Apr-20 13:33 45.649091 -122.955847 352 3036ft 205kts
04-Apr-20 13:34 45.691368 -122.916968 80 3059ft 191kts
04-Apr-20 13:35 45.682411 -122.848087 116 2923ft 176kts
04-Apr-20 13:36 45.659691 -122.787808 119 2383ft 171kts
04-Apr-20 13:37 45.636718 -122.728625 120 1766ft 172kts
04-Apr-20 13:38 45.614916 -122.672628 120 843ft 146kts
04-Apr-20 13:39 45.595845 -122.623100 120 107ft 138kts
04-Apr-20 13:40 45.587897 -122.600430 79 40ft 11kts
04-Apr-20 13:41 45.587920 -122.600260 78 39ft 1kts
04-Apr-20 13:42 45.589421 -122.598936 40 39ft 0kts

Navigation Log

Ident Type
Flight plan parsing failed, navigation log unavailable